Time;durP1;ratioP1;P1;durP2;ratioP2;P2;SDS_P1;SDS_P2;PMS_P1;PMS_P2;Temp;Humidity;BMP_temperature;BMP_pressure;BME280_temperature;BME280_humidity;BME280_pressure;Samples;Min_cycle;Max_cycle;Signal;HPM_P1;HPM_P2
2023/03/01 00:00:51;;;;;;;5.17;4.30;;;;;;;6.57;100.00;95369.13;5053790;28;20445;-73
2023/03/01 00:03:18;;;;;;;6.67;5.97;;;;;;;6.58;100.00;95366.44;5053767;28;20479;-71
2023/03/01 00:05:46;;;;;;;6.10;5.40;;;;;;;6.50;100.00;95363.47;5053857;28;20445;-73
2023/03/01 00:08:14;;;;;;;8.23;7.30;;;;;;;6.52;100.00;95369.44;5053501;28;20504;-72
2023/03/01 00:10:40;;;;;;;9.97;8.40;;;;;;;6.58;100.00;95360.38;5053554;28;20491;-72
2023/03/01 00:13:07;;;;;;;6.70;5.83;;;;;;;6.61;100.00;95366.25;5053566;28;20495;-73
2023/03/01 00:15:35;;;;;;;8.33;6.23;;;;;;;6.43;100.00;95367.38;5053361;28;20498;-73
2023/03/01 00:18:01;;;;;;;7.17;6.33;;;;;;;6.43;100.00;95362.19;5053236;28;20490;-73
2023/03/01 00:20:28;;;;;;;6.83;5.30;;;;;;;6.46;100.00;95360.22;5018174;28;20454;-73
2023/03/01 00:22:55;;;;;;;6.90;5.63;;;;;;;6.43;100.00;95349.13;5018161;28;20524;-72
2023/03/01 00:25:23;;;;;;;5.77;5.17;;;;;;;6.34;100.00;95347.91;5053057;28;20936;-73
2023/03/01 00:27:50;;;;;;;5.30;4.80;;;;;;;6.20;100.00;95351.38;5053542;28;20490;-72
2023/03/01 00:30:17;;;;;;;5.47;4.97;;;;;;;6.14;100.00;95341.31;5053216;28;20448;-72
2023/03/01 00:32:44;;;;;;;5.60;3.97;;;;;;;6.16;100.00;95338.63;5053221;28;20932;-73
2023/03/01 00:35:10;;;;;;;4.10;3.70;;;;;;;6.11;100.00;95335.47;5053252;28;20972;-74
2023/03/01 00:37:37;;;;;;;4.70;3.70;;;;;;;6.08;100.00;95331.28;5052920;28;20461;-73
2023/03/01 00:40:06;;;;;;;4.47;3.80;;;;;;;6.11;100.00;95325.88;5053134;28;20445;-72
2023/03/01 00:42:34;;;;;;;4.73;3.50;;;;;;;6.14;100.00;95325.69;5017995;28;20788;-73
2023/03/01 00:45:00;;;;;;;4.30;3.80;;;;;;;6.11;100.00;95335.47;5052681;28;20948;-73
2023/03/01 00:47:29;;;;;;;4.50;4.10;;;;;;;6.03;100.00;95327.25;5052751;28;20484;-73
2023/03/01 00:49:56;;;;;;;5.33;3.60;;;;;;;6.13;100.00;95334.44;5052673;28;20453;-72
2023/03/01 00:52:23;;;;;;;4.53;4.13;;;;;;;6.10;100.00;95334.63;5017737;28;20487;-73
2023/03/01 00:54:53;;;;;;;4.60;3.73;;;;;;;5.93;100.00;95326.13;5033808;28;20449;-72
2023/03/01 00:57:20;;;;;;;4.10;3.70;;;;;;;5.95;100.00;95319.91;5052767;28;20857;-73
2023/03/01 00:59:48;;;;;;;8.40;3.60;;;;;;;5.93;100.00;95315.72;5052901;28;21002;-73
2023/03/01 01:02:15;;;;;;;4.07;3.67;;;;;;;5.95;100.00;95319.91;5052496;28;20460;-72
2023/03/01 01:04:42;;;;;;;5.80;3.83;;;;;;;5.94;100.00;95323.44;5052459;28;20932;-73
2023/03/01 01:07:08;;;;;;;4.10;3.63;;;;;;;5.99;100.00;95325.75;5052560;28;20496;-73
2023/03/01 01:09:35;;;;;;;4.77;4.10;;;;;;;5.94;100.00;95327.81;5052569;28;20437;-71
2023/03/01 01:12:02;;;;;;;3.87;3.53;;;;;;;6.03;100.00;95327.25;5052678;28;20453;-72
2023/03/01 01:14:29;;;;;;;7.67;5.27;;;;;;;6.08;100.00;95331.28;5052439;28;20807;-73
2023/03/01 01:16:57;;;;;;;6.20;4.90;;;;;;;6.10;100.00;95324.22;5052187;28;20449;-73
2023/03/01 01:19:24;;;;;;;4.20;3.80;;;;;;;6.17;100.00;95327.28;5052210;28;20445;-71
2023/03/01 01:21:52;;;;;;;4.10;3.63;;;;;;;6.19;100.00;95323.63;5052302;28;20449;-73
2023/03/01 01:24:19;;;;;;;4.47;3.77;;;;;;;6.24;100.00;95332.94;5052456;28;20652;-72
2023/03/01 01:26:46;;;;;;;4.30;3.80;;;;;;;6.22;100.00;95325.22;5052113;28;20819;-72
2023/03/01 01:29:14;;;;;;;4.13;3.73;;;;;;;6.08;100.00;95331.28;5052248;28;20829;-73
2023/03/01 01:31:42;;;;;;;3.70;3.40;;;;;;;6.18;100.00;95318.53;5051792;28;20859;-73
2023/03/01 01:34:15;;;;;;;3.50;3.20;;;;;;;6.07;100.00;95328.72;5051971;28;20489;-73
2023/03/01 01:36:42;;;;;;;3.10;2.90;;;;;;;6.14;100.00;95333.50;5052071;28;20476;-72
2023/03/01 01:39:12;;;;;;;3.27;2.97;;;;;;;6.16;100.00;95341.22;5052148;28;20818;-72
2023/03/01 01:41:40;;;;;;;3.13;2.93;;;;;;;6.11;100.00;95336.31;5052160;28;20960;-72
2023/03/01 01:44:19;;;;;;;3.37;3.10;;;;;;;6.31;100.00;95331.63;5051914;28;20976;-72
2023/03/01 01:46:49;;;;;;;3.90;3.47;;;;;;;6.31;100.00;95323.81;5051846;28;20445;-72
2023/03/01 01:49:25;;;;;;;2.73;2.53;;;;;;;6.40;100.00;95325.88;5052062;28;20492;-72
2023/03/01 01:51:57;;;;;;;3.10;2.80;;;;;;;6.37;100.00;95329.50;5051633;28;20448;-72
2023/03/01 01:54:28;;;;;;;3.27;2.80;;;;;;;6.36;100.00;95326.97;5051351;28;20809;-72
2023/03/01 01:57:01;;;;;;;2.73;2.53;;;;;;;6.29;100.00;95326.50;5051953;28;20445;-73
2023/03/01 01:59:31;;;;;;;3.17;2.97;;;;;;;6.26;100.00;95329.31;5016677;28;20792;-72
2023/03/01 02:02:01;;;;;;;3.23;3.03;;;;;;;6.36;100.00;95332.19;5051962;28;20889;-72
2023/03/01 02:04:30;;;;;;;2.90;2.60;;;;;;;6.35;100.00;95322.69;5051923;28;20510;-73
2023/03/01 02:07:01;;;;;;;2.90;2.70;;;;;;;6.43;100.00;95320.47;5051719;28;20520;-73
2023/03/01 02:09:28;;;;;;;2.87;2.67;;;;;;;6.27;100.00;95320.56;5032863;28;20437;-73
2023/03/01 02:11:55;;;;;;;3.17;2.97;;;;;;;6.23;100.00;95313.88;5051930;28;20784;-73
2023/03/01 02:14:22;;;;;;;2.87;2.67;;;;;;;6.29;100.00;95307.44;5051687;28;20433;-72
2023/03/01 02:16:49;;;;;;;3.07;2.87;;;;;;;6.40;100.00;95311.06;5051581;28;20445;-73
2023/03/01 02:19:26;;;;;;;3.20;2.90;;;;;;;6.30;100.00;95309.09;5051984;28;20499;-72
2023/03/01 02:22:06;;;;;;;3.90;3.60;;;;;;;6.19;100.00;95318.44;5051894;28;20433;-73
2023/03/01 02:24:45;;;;;;;3.33;2.73;;;;;;;6.22;100.00;95312.19;5018200;28;20445;-72
2023/03/01 02:27:14;;;;;;;3.40;3.20;;;;;;;6.13;100.00;95312.75;5016383;28;20856;-73
2023/03/01 02:29:43;;;;;;;4.37;4.07;;;;;;;6.20;100.00;95317.50;5051423;28;20494;-73
2023/03/01 02:32:12;;;;;;;3.80;3.50;;;;;;;6.34;100.00;95315.81;5051394;28;20913;-72
2023/03/01 02:34:40;;;;;;;3.37;3.17;;;;;;;6.24;100.00;95317.31;5051628;28;20530;-72
2023/03/01 02:37:12;;;;;;;3.63;3.43;;;;;;;6.30;100.00;95324.75;5016399;28;20453;-73
2023/03/01 02:39:43;;;;;;;3.60;3.30;;;;;;;6.22;100.00;95317.41;5032694;28;20824;-73
2023/03/01 02:42:13;;;;;;;4.87;4.20;;;;;;;6.19;100.00;95323.63;5051531;28;21022;-73
2023/03/01 02:44:42;;;;;;;4.17;3.77;;;;;;;6.16;100.00;95326.44;5051098;28;20446;-73
2023/03/01 02:47:08;;;;;;;4.30;3.90;;;;;;;6.15;100.00;95327.38;5051712;28;20491;-73
2023/03/01 02:49:37;;;;;;;4.40;3.57;;;;;;;6.09;100.00;95319.94;5051386;28;20481;-73
2023/03/01 02:52:22;;;;;;;3.83;3.50;;;;;;;5.94;100.00;95323.44;5051354;28;20438;-73
2023/03/01 02:54:55;;;;;;;4.60;4.20;;;;;;;6.04;100.00;95321.09;5051505;28;20445;-73
2023/03/01 02:57:23;;;;;;;5.30;4.80;;;;;;;6.17;100.00;95320.28;5051099;28;20915;-72
2023/03/01 02:59:53;;;;;;;5.30;4.80;;;;;;;6.08;100.00;95323.47;5051370;28;20499;-73
2023/03/01 03:02:35;;;;;;;5.80;5.30;;;;;;;6.08;100.00;95323.47;5051313;28;20944;-73
2023/03/01 03:05:05;;;;;;;6.30;5.70;;;;;;;6.06;100.00;95322.69;5051130;28;20456;-72
2023/03/01 03:07:33;;;;;;;7.47;6.60;;;;;;;6.11;100.00;95312.84;5054274;28;20452;-73
2023/03/01 03:10:00;;;;;;;7.80;5.80;;;;;;;6.04;100.00;95314.13;5019910;28;21035;-73
2023/03/01 03:12:27;;;;;;;6.00;5.10;;;;;;;5.99;100.00;95320.56;5054817;28;20437;-73
2023/03/01 03:14:55;;;;;;;6.00;5.37;;;;;;;5.90;100.00;95314.97;5054604;28;20464;-73
2023/03/01 03:17:22;;;;;;;11.13;7.53;;;;;;;5.90;100.00;95311.53;5054677;28;20869;-72
2023/03/01 03:19:49;;;;;;;10.50;7.63;;;;;;;5.93;100.00;95321.75;5054580;28;20449;-72
2023/03/01 03:22:16;;;;;;;7.63;6.40;;;;;;;5.87;100.00;95322.94;5055012;28;20444;-72
2023/03/01 03:24:43;;;;;;;6.97;6.17;;;;;;;6.01;100.00;95324.72;5054731;28;20450;-72
2023/03/01 03:27:09;;;;;;;7.17;6.30;;;;;;;6.04;100.00;95323.72;5054778;28;20449;-74
2023/03/01 03:29:36;;;;;;;9.43;7.30;;;;;;;6.09;100.00;95325.13;5019136;28;20555;-73
2023/03/01 03:32:05;;;;;;;6.10;5.47;;;;;;;5.94;100.00;95330.41;5054328;28;20461;-72
2023/03/01 03:34:31;;;;;;;6.60;5.77;;;;;;;5.89;100.00;95325.44;5054040;28;20468;-74
2023/03/01 03:36:59;;;;;;;9.10;6.60;;;;;;;5.99;100.00;95326.59;5054478;28;20446;-73
2023/03/01 03:39:26;;;;;;;9.67;6.40;;;;;;;6.15;100.00;95322.16;5019264;28;20460;-72
2023/03/01 03:41:53;;;;;;;5.43;4.93;;;;;;;6.18;100.00;95331.56;5054048;28;20532;-73
2023/03/01 03:44:20;;;;;;;5.00;4.50;;;;;;;6.21;100.00;95332.19;5054107;28;20458;-72
2023/03/01 03:47:05;;;;;;;5.90;5.30;;;;;;;6.15;100.00;95331.75;5053970;28;20491;-73
2023/03/01 03:49:34;;;;;;;5.03;4.53;;;;;;;6.24;100.00;95336.38;5053732;28;20491;-72
2023/03/01 03:52:01;;;;;;;3.87;3.57;;;;;;;6.23;100.00;95329.50;5053952;28;20861;-72
2023/03/01 03:54:28;;;;;;;4.10;3.70;;;;;;;6.26;100.00;95333.69;5035082;28;20445;-72
2023/03/01 03:56:54;;;;;;;4.40;4.00;;;;;;;6.37;100.00;95332.13;5054363;28;20498;-72
2023/03/01 03:59:39;;;;;;;4.03;3.73;;;;;;;6.31;100.00;95331.63;5019294;28;20457;-73
2023/03/01 04:02:08;;;;;;;4.90;2.90;;;;;;;6.31;100.00;95323.81;5054607;28;20446;-73
2023/03/01 04:04:36;;;;;;;4.10;3.70;;;;;;;6.32;100.00;95326.31;5054560;28;20445;-72
2023/03/01 04:07:03;;;;;;;5.03;3.70;;;;;;;6.12;100.00;95332.75;5054283;28;20506;-73
2023/03/01 04:09:30;;;;;;;3.90;3.33;;;;;;;6.30;100.00;95332.56;5054288;28;20489;-73
2023/03/01 04:11:57;;;;;;;3.40;2.73;;;;;;;6.27;100.00;95325.78;5054098;28;20882;-72
2023/03/01 04:14:24;;;;;;;5.10;4.00;;;;;;;6.29;100.00;95333.50;5054481;28;20449;-73
2023/03/01 04:16:51;;;;;;;5.00;4.33;;;;;;;6.21;100.00;95334.81;5054847;28;20450;-74
2023/03/01 04:19:17;;;;;;;4.27;3.87;;;;;;;6.14;100.00;95337.88;5053893;28;20445;-74
2023/03/01 04:21:46;;;;;;;3.80;3.50;;;;;;;6.22;100.00;95331.25;5053892;28;20453;-71
2023/03/01 04:24:12;;;;;;;4.67;4.20;;;;;;;6.13;100.00;95329.22;5053956;28;20449;-72
2023/03/01 04:26:39;;;;;;;5.60;5.00;;;;;;;6.09;100.00;95332.94;5053771;28;20449;-73
2023/03/01 04:29:06;;;;;;;4.40;3.97;;;;;;;6.08;100.00;95335.66;5053808;28;20489;-73
2023/03/01 04:31:33;;;;;;;4.27;3.87;;;;;;;6.10;100.00;95336.41;5053965;28;20445;-72
2023/03/01 04:34:01;;;;;;;5.73;4.43;;;;;;;6.07;100.00;95337.41;5053785;28;20476;-72
2023/03/01 04:36:30;;;;;;;4.90;4.10;;;;;;;6.10;100.00;95334.63;5053761;28;20456;-73
2023/03/01 04:38:58;;;;;;;5.10;4.60;;;;;;;6.28;100.00;95334.44;5053789;28;20449;-72
2023/03/01 04:41:25;;;;;;;8.10;4.53;;;;;;;6.29;100.00;95323.91;5053821;28;20450;-73
2023/03/01 04:43:52;;;;;;;5.43;4.50;;;;;;;6.39;100.00;95329.41;5053505;28;20441;-72
2023/03/01 04:46:21;;;;;;;7.50;5.43;;;;;;;6.38;100.00;95340.78;5053565;28;20453;-72
2023/03/01 04:48:49;;;;;;;6.57;4.77;;;;;;;6.51;100.00;95333.84;5053375;28;20865;-72
2023/03/01 04:51:16;;;;;;;10.40;5.87;;;;;;;6.68;100.00;95325.84;5053499;28;20460;-72
2023/03/01 04:53:43;;;;;;;6.37;5.07;;;;;;;6.50;100.00;95322.59;5053205;28;20437;-73
2023/03/01 04:56:13;;;;;;;8.90;6.80;;;;;;;6.53;100.00;95327.63;5053855;28;20499;-73
2023/03/01 04:58:40;;;;;;;7.50;5.77;;;;;;;6.52;100.00;95331.16;5053318;28;20456;-72
2023/03/01 05:01:14;;;;;;;5.70;5.03;;;;;;;6.46;100.00;95331.53;5052351;28;20500;-72
2023/03/01 05:03:42;;;;;;;5.60;4.80;;;;;;;6.54;100.00;95333.66;5052933;28;20774;-73
2023/03/01 05:06:09;;;;;;;7.10;4.83;;;;;;;6.63;100.00;95334.84;5053123;28;20449;-73
2023/03/01 05:08:37;;;;;;;8.30;5.67;;;;;;;6.86;100.00;95336.88;5053172;28;20538;-72
2023/03/01 05:11:05;;;;;;;4.97;4.40;;;;;;;7.00;100.00;95334.25;5053076;28;20528;-71
2023/03/01 05:13:33;;;;;;;5.57;5.00;;;;;;;7.11;100.00;95331.78;5052792;28;20445;-71
2023/03/01 05:16:02;;;;;;;5.57;4.80;;;;;;;7.15;100.00;95342.84;5052803;28;20460;-72
2023/03/01 05:18:30;;;;;;;5.00;4.50;;;;;;;7.26;100.00;95336.97;5052770;28;20545;-71
2023/03/01 05:21:04;;;;;;;4.83;4.43;;;;;;;7.32;100.00;95332.16;5052831;28;20458;-72
2023/03/01 05:23:31;;;;;;;6.20;5.43;;;;;;;7.37;100.00;95334.47;5017738;28;20495;-71
2023/03/01 05:25:59;;;;;;;5.80;5.20;;;;;;;7.40;100.00;95336.88;5052718;28;20450;-72
2023/03/01 05:28:27;;;;;;;5.23;4.73;;;;;;;7.32;100.00;95337.38;5052714;28;20493;-71
2023/03/01 05:30:56;;;;;;;3.30;3.00;;;;;;;7.02;100.00;95334.97;5051497;28;20443;-73
2023/03/01 05:33:23;;;;;;;3.23;2.90;;;;;;;7.00;100.00;95336.84;5053432;28;20456;-72
2023/03/01 05:35:51;;;;;;;25.50;14.70;;;;;;;6.75;100.00;95331.50;5052633;28;20484;-72
2023/03/01 05:38:18;;;;;;;24.77;13.63;;;;;;;6.88;100.00;95335.00;5051793;28;20833;-72
2023/03/01 05:40:47;;;;;;;14.87;8.83;;;;;;;6.80;100.00;95340.72;5052010;28;20451;-73
2023/03/01 05:43:15;;;;;;;3.80;3.50;;;;;;;6.66;100.00;95345.97;5052322;28;20900;-72
2023/03/01 05:45:43;;;;;;;4.37;3.97;;;;;;;6.74;100.00;95335.03;5052172;28;20449;-73
2023/03/01 05:48:12;;;;;;;4.17;3.77;;;;;;;6.56;100.00;95333.56;5052146;28;20867;-73
2023/03/01 05:50:41;;;;;;;4.27;3.80;;;;;;;6.53;100.00;95342.41;5033631;28;20479;-73
2023/03/01 05:53:12;;;;;;;154.20;48.70;;;;;;;8.81;100.00;95342.09;5017340;28;20803;-74
2023/03/01 05:55:39;;;;;;;36.93;16.33;;;;;;;10.68;100.00;95345.63;5052548;28;20454;-74
2023/03/01 05:58:08;;;;;;;10.30;6.07;;;;;;;12.04;97.48;95366.22;5017367;28;20513;-74
2023/03/01 06:00:35;;;;;;;4.80;3.50;;;;;;;12.90;85.24;95371.16;5052394;28;20459;-74
2023/03/01 06:03:02;;;;;;;3.40;2.97;;;;;;;13.64;86.11;95371.69;5052221;28;20913;-75
2023/03/01 06:05:30;;;;;;;3.43;3.13;;;;;;;13.52;84.41;95370.13;5052459;28;20516;-73
2023/03/01 06:08:00;;;;;;;3.70;3.03;;;;;;;12.52;75.61;95378.88;5016979;28;20442;-73
2023/03/01 06:10:26;;;;;;;4.00;3.30;;;;;;;11.48;79.52;95382.16;5052308;28;20536;-74
2023/03/01 06:12:54;;;;;;;4.40;4.00;;;;;;;10.78;83.07;95385.13;5051624;28;20436;-73
2023/03/01 06:15:21;;;;;;;2.80;2.60;;;;;;;9.94;86.35;95371.38;5050760;28;20215;-72
2023/03/01 06:17:48;;;;;;;1.83;1.73;;;;;;;9.23;87.63;95387.09;5051551;28;20503;-73
2023/03/01 06:20:17;;;;;;;2.17;1.80;;;;;;;8.86;89.33;95383.63;5051849;28;20444;-73
2023/03/01 06:22:46;;;;;;;2.20;2.00;;;;;;;8.22;93.43;95388.88;5051950;28;20452;-73
2023/03/01 06:25:14;;;;;;;2.83;2.00;;;;;;;7.38;98.39;95375.31;5051558;28;20447;-73
2023/03/01 06:27:42;;;;;;;2.23;1.90;;;;;;;7.08;100.00;95367.66;5051888;28;20852;-72
2023/03/01 06:30:11;;;;;;;3.43;2.33;;;;;;;6.97;100.00;95372.72;5051660;28;20540;-70
2023/03/01 06:32:41;;;;;;;3.90;3.50;;;;;;;6.97;100.00;95370.97;5052078;28;20869;-72
2023/03/01 06:35:09;;;;;;;7.30;4.47;;;;;;;8.59;100.00;95363.69;5052131;28;20562;-74
2023/03/01 06:37:36;;;;;;;12.10;4.77;;;;;;;10.34;100.00;95373.63;5003722;28;20474;-73
2023/03/01 06:40:07;;;;;;;5.33;3.07;;;;;;;11.08;95.16;95390.63;5051835;28;20506;-72
2023/03/01 06:42:35;;;;;;;2.80;2.60;;;;;;;10.96;94.59;95401.22;5054815;28;20473;-73
2023/03/01 06:45:01;;;;;;;2.40;2.20;;;;;;;10.90;92.09;95399.09;5055167;28;20904;-74
2023/03/01 06:47:28;;;;;;;3.10;2.90;;;;;;;10.46;94.22;95391.06;5055945;28;20484;-73
2023/03/01 06:49:55;;;;;;;3.70;3.40;;;;;;;10.10;93.67;95392.00;5055544;28;20537;-73
2023/03/01 06:52:22;;;;;;;2.83;2.63;;;;;;;10.01;91.86;95392.72;5055540;28;20455;-73
2023/03/01 06:54:48;;;;;;;3.50;3.30;;;;;;;8.94;92.30;95383.91;5055263;28;20454;-72
2023/03/01 06:57:17;;;;;;;4.57;3.37;;;;;;;8.34;96.86;95382.00;5053344;28;20468;-75
2023/03/01 06:59:43;;;;;;;5.30;3.80;;;;;;;7.80;100.00;95383.88;5020425;28;20504;-73
2023/03/01 07:02:11;;;;;;;4.30;3.90;;;;;;;7.61;100.00;95384.25;5056423;28;20457;-78
2023/03/01 07:04:38;;;;;;;3.00;2.70;;;;;;;7.13;100.00;95376.03;5054490;28;20448;-73
2023/03/01 07:07:05;;;;;;;2.80;2.60;;;;;;;6.90;100.00;95377.47;5055004;28;21279;-77
2023/03/01 07:09:32;;;;;;;4.60;3.33;;;;;;;6.94;100.00;95383.34;5055259;28;20907;-73
2023/03/01 07:11:59;;;;;;;6.97;4.17;;;;;;;6.93;100.00;95379.88;5055294;28;20447;-73
2023/03/01 07:14:27;;;;;;;4.73;4.33;;;;;;;6.86;100.00;95369.94;5055029;28;20457;-74
2023/03/01 07:16:54;;;;;;;5.60;4.20;;;;;;;6.84;100.00;95373.47;5055157;28;20530;-73
2023/03/01 07:19:21;;;;;;;7.13;5.17;;;;;;;6.79;100.00;95369.50;5054950;28;20456;-74
2023/03/01 07:21:48;;;;;;;4.90;4.50;;;;;;;6.55;100.00;95373.59;5055212;28;20454;-74
2023/03/01 07:24:15;;;;;;;4.83;3.87;;;;;;;6.64;100.00;95368.66;5055042;28;20453;-73
2023/03/01 07:26:42;;;;;;;3.90;3.60;;;;;;;6.62;100.00;95367.91;5054265;28;20506;-74
2023/03/01 07:29:11;;;;;;;5.40;4.60;;;;;;;6.69;100.00;95371.00;5054850;28;20497;-78
2023/03/01 07:31:39;;;;;;;3.67;3.37;;;;;;;6.72;100.00;95368.22;5055959;28;20511;-79
2023/03/01 07:34:06;;;;;;;3.17;2.87;;;;;;;6.84;100.00;95362.22;5055968;28;20465;-79
2023/03/01 07:36:33;;;;;;;3.10;2.90;;;;;;;7.00;100.00;95364.72;5055630;28;20449;-78
2023/03/01 07:39:02;;;;;;;5.53;2.77;;;;;;;7.15;100.00;95366.34;5055494;28;20445;-79
2023/03/01 07:41:28;;;;;;;3.60;3.30;;;;;;;6.97;100.00;95370.97;5054965;28;20453;-74
2023/03/01 07:43:55;;;;;;;3.50;3.10;;;;;;;7.12;100.00;95372.59;5054607;28;20460;-73
2023/03/01 07:46:22;;;;;;;4.13;3.03;;;;;;;7.04;100.00;95367.03;5054787;28;20480;-74
2023/03/01 07:48:50;;;;;;;12.03;3.47;;;;;;;7.14;100.00;95370.72;5054692;28;20450;-75
2023/03/01 07:51:17;;;;;;;11.00;3.20;;;;;;;7.27;100.00;95360.34;5054581;28;20450;-75
2023/03/01 07:53:47;;;;;;;5.00;3.13;;;;;;;7.30;100.00;95354.09;5053404;28;20858;-74
2023/03/01 07:56:17;;;;;;;3.73;3.33;;;;;;;7.26;100.00;95350.84;5054613;28;20477;-74
2023/03/01 07:58:45;;;;;;;2.70;2.50;;;;;;;7.29;100.00;95349.81;5054572;28;20446;-74
2023/03/01 08:01:13;;;;;;;3.97;3.33;;;;;;;7.12;100.00;95350.88;5053614;28;20449;-73
2023/03/01 08:03:40;;;;;;;7.13;4.97;;;;;;;7.15;100.00;95353.28;5053332;28;20441;-74
2023/03/01 08:06:10;;;;;;;7.90;3.43;;;;;;;7.22;100.00;95346.72;5054711;28;20429;-73
2023/03/01 08:08:37;;;;;;;3.67;2.80;;;;;;;7.44;100.00;95347.03;5054397;28;20453;-74
2023/03/01 08:11:05;;;;;;;3.37;2.87;;;;;;;7.54;100.00;95354.28;5053974;28;20501;-73
2023/03/01 08:13:31;;;;;;;5.23;4.70;;;;;;;7.46;100.00;95350.38;5054113;28;20964;-74
2023/03/01 08:16:02;;;;;;;7.13;3.70;;;;;;;7.34;100.00;95351.19;5054049;28;20447;-71
2023/03/01 08:18:29;;;;;;;5.17;4.67;;;;;;;7.41;99.97;95349.84;5053936;28;20482;-73
2023/03/01 08:20:56;;;;;;;3.60;3.33;;;;;;;7.25;100.00;95346.56;5053897;28;20445;-73
2023/03/01 08:23:25;;;;;;;5.77;3.40;;;;;;;7.30;100.00;95341.88;5053782;28;20787;-73
2023/03/01 08:25:52;;;;;;;5.93;3.70;;;;;;;7.33;100.00;95346.91;5053180;28;21011;-74
2023/03/01 08:28:19;;;;;;;4.13;3.77;;;;;;;7.44;100.00;95347.03;5053239;28;20472;-74
2023/03/01 08:30:46;;;;;;;8.73;5.90;;;;;;;7.33;98.96;95352.13;5034346;28;20500;-74
2023/03/01 08:33:13;;;;;;;10.73;6.67;;;;;;;7.53;99.87;95345.59;5053230;28;20803;-73
2023/03/01 08:35:39;;;;;;;12.30;9.30;;;;;;;7.61;99.20;95350.31;5018294;28;20810;-73
2023/03/01 08:38:06;;;;;;;5.37;3.80;;;;;;;7.31;99.48;95345.31;5034420;28;20853;-73
2023/03/01 08:40:34;;;;;;;9.00;4.80;;;;;;;7.54;99.72;95346.44;5053210;28;20958;-73
2023/03/01 08:43:01;;;;;;;6.20;3.93;;;;;;;7.67;99.35;95348.13;5052937;28;20442;-74
2023/03/01 08:45:28;;;;;;;6.33;5.03;;;;;;;7.82;98.67;95341.06;5053287;28;20442;-73
2023/03/01 08:47:54;;;;;;;4.40;4.00;;;;;;;7.72;97.28;95355.66;5052958;28;20460;-74
2023/03/01 08:50:22;;;;;;;4.67;4.23;;;;;;;7.54;98.40;95352.50;5052874;28;20485;-73
2023/03/01 08:52:49;;;;;;;3.83;3.33;;;;;;;7.58;97.93;95347.91;5052842;28;20442;-73
2023/03/01 08:55:17;;;;;;;12.30;3.90;;;;;;;7.68;98.23;95354.19;5052576;28;20443;-74
2023/03/01 08:57:45;;;;;;;4.53;4.10;;;;;;;7.76;97.72;95357.13;5052912;28;20475;-72
2023/03/01 09:00:14;;;;;;;4.00;3.60;;;;;;;7.70;97.77;95358.38;5052766;28;20442;-73
2023/03/01 09:02:41;;;;;;;3.13;2.90;;;;;;;7.72;97.79;95348.66;5052534;28;20446;-73
2023/03/01 09:05:09;;;;;;;3.40;3.10;;;;;;;7.54;97.73;95349.06;5052377;28;20445;-73
2023/03/01 09:07:35;;;;;;;3.77;3.40;;;;;;;7.55;98.62;95348.13;5052348;28;20451;-73
2023/03/01 09:10:02;;;;;;;6.00;4.27;;;;;;;7.72;98.29;95350.44;5052021;28;20883;-74
2023/03/01 09:12:29;;;;;;;9.17;3.70;;;;;;;7.49;98.31;95348.50;5053219;28;20453;-74
2023/03/01 09:14:57;;;;;;;5.77;3.57;;;;;;;7.53;98.87;95353.44;5050624;28;20478;-72
2023/03/01 09:17:24;;;;;;;9.03;3.53;;;;;;;7.49;98.99;95353.72;5052703;28;20445;-74
2023/03/01 09:19:51;;;;;;;3.43;3.10;;;;;;;7.73;98.64;95352.09;5052822;28;20446;-72
2023/03/01 09:22:18;;;;;;;3.90;3.50;;;;;;;7.82;97.22;95348.06;5052546;28;20451;-73
2023/03/01 09:24:44;;;;;;;3.43;3.13;;;;;;;7.73;96.82;95344.28;5052425;28;20453;-76
2023/03/01 09:27:12;;;;;;;2.60;2.40;;;;;;;7.64;97.45;95343.13;5052765;28;20465;-73
2023/03/01 09:29:39;;;;;;;4.10;2.87;;;;;;;7.34;99.22;95345.97;5052818;28;20784;-73
2023/03/01 09:32:08;;;;;;;3.67;3.37;;;;;;;7.22;99.30;95340.66;5052820;28;20520;-73
2023/03/01 09:35:00;;;;;;;4.00;3.70;;;;;;;7.41;99.52;95336.78;5052748;28;20505;-73
2023/03/01 09:37:21;;;;;;;2.60;2.40;;;;;;;7.57;99.20;95341.00;5052668;28;20439;-74
2023/03/01 09:39:48;;;;;;;2.70;2.50;;;;;;;7.31;100.00;95335.72;5052695;28;20446;-75
2023/03/01 09:42:15;;;;;;;3.27;2.97;;;;;;;7.62;100.00;95333.72;5052716;28;20449;-73
2023/03/01 09:44:48;;;;;;;2.63;2.43;;;;;;;7.80;99.01;95332.47;5052745;28;20476;-74
2023/03/01 09:47:19;;;;;;;5.10;3.50;;;;;;;7.62;98.79;95331.09;5052323;28;20959;-74
2023/03/01 09:49:58;;;;;;;3.50;3.20;;;;;;;7.59;98.84;95326.91;5052603;28;20461;-73
2023/03/01 09:52:34;;;;;;;6.43;3.47;;;;;;;7.52;98.71;95328.25;5052700;28;20452;-73
2023/03/01 09:55:02;;;;;;;5.87;3.83;;;;;;;7.37;100.00;95329.25;5018569;28;20446;-74
2023/03/01 09:57:36;;;;;;;6.17;4.40;;;;;;;7.54;99.90;95315.09;5052528;28;20442;-73
2023/03/01 10:00:21;;;;;;;7.60;4.87;;;;;;;7.54;99.15;95326.38;5052022;28;20861;-72
2023/03/01 10:02:53;;;;;;;4.83;3.63;;;;;;;7.63;99.04;95323.16;5052602;28;20443;-73
2023/03/01 10:05:35;;;;;;;5.13;4.60;;;;;;;7.52;99.15;95319.56;5052662;28;20529;-72
2023/03/01 10:08:26;;;;;;;5.70;5.10;;;;;;;7.54;99.51;95320.31;5052445;28;20460;-74
2023/03/01 10:10:53;;;;;;;5.40;5.00;;;;;;;7.64;99.87;95316.16;5052533;28;20580;-74
2023/03/01 10:13:25;;;;;;;7.27;5.80;;;;;;;7.76;99.23;95312.72;5052330;28;20442;-73
2023/03/01 10:15:57;;;;;;;7.33;4.73;;;;;;;7.80;98.64;95316.78;5052549;28;20454;-75
2023/03/01 10:18:28;;;;;;;8.63;4.90;;;;;;;7.73;98.50;95313.75;5056352;28;20455;-73
2023/03/01 10:20:58;;;;;;;5.87;5.10;;;;;;;7.76;98.43;95308.31;5056433;28;20583;-74
2023/03/01 10:23:25;;;;;;;4.90;4.50;;;;;;;7.84;97.71;95315.69;5056080;28;20453;-74
2023/03/01 10:26:06;;;;;;;5.30;4.13;;;;;;;8.00;99.02;95295.38;5056195;28;20454;-73
2023/03/01 10:28:48;;;;;;;6.23;4.40;;;;;;;8.00;97.40;95300.63;5056337;28;21195;-75
2023/03/01 10:31:18;;;;;;;6.80;4.80;;;;;;;7.89;97.43;95294.47;5056272;28;20482;-74
2023/03/01 10:33:47;;;;;;;4.00;3.27;;;;;;;7.72;98.64;95287.75;5056505;28;20486;-72
2023/03/01 10:36:14;;;;;;;4.10;2.80;;;;;;;7.84;99.18;95292.16;5056440;28;20451;-74
2023/03/01 10:38:53;;;;;;;4.53;2.93;;;;;;;7.81;98.55;95289.75;5037109;28;21194;-74
2023/03/01 10:41:23;;;;;;;2.90;2.60;;;;;;;7.74;99.13;95285.88;5055828;28;20484;-73
2023/03/01 10:43:51;;;;;;;3.20;3.00;;;;;;;7.75;98.39;95277.91;5055778;28;20485;-74
2023/03/01 10:46:26;;;;;;;1.97;1.87;;;;;;;7.65;99.54;95276.03;5055766;28;20438;-73
2023/03/01 10:49:13;;;;;;;2.53;2.33;;;;;;;7.71;99.18;95273.00;5055540;28;20438;-74
2023/03/01 10:51:41;;;;;;;2.60;2.30;;;;;;;7.69;99.16;95269.66;5055636;28;20597;-73
2023/03/01 10:54:18;;;;;;;2.83;2.50;;;;;;;7.64;99.01;95274.38;5055668;28;20446;-73
2023/03/01 10:56:50;;;;;;;3.10;2.27;;;;;;;7.65;99.56;95269.03;5055306;28;20449;-73
2023/03/01 10:59:26;;;;;;;2.40;2.20;;;;;;;7.61;99.84;95264.97;5055201;28;20478;-74
2023/03/01 11:02:16;;;;;;;3.30;3.10;;;;;;;7.55;100.00;95268.00;5054976;28;20875;-72
2023/03/01 11:04:59;;;;;;;2.87;2.50;;;;;;;7.69;100.00;95267.06;5055216;28;20456;-74
2023/03/01 11:07:26;;;;;;;4.63;3.30;;;;;;;7.74;99.33;95267.56;5055298;28;20447;-72
2023/03/01 11:09:52;;;;;;;2.53;2.33;;;;;;;7.68;99.24;95270.63;5055376;28;20446;-73
2023/03/01 11:12:21;;;;;;;2.90;2.70;;;;;;;7.60;100.00;95276.34;5055139;28;20489;-73
2023/03/01 11:14:50;;;;;;;6.70;3.10;;;;;;;7.68;100.00;95268.84;5055034;28;20445;-73
2023/03/01 11:17:22;;;;;;;4.50;3.33;;;;;;;7.77;99.63;95272.59;5020253;28;20477;-73
2023/03/01 11:20:04;;;;;;;5.40;3.43;;;;;;;7.59;99.68;95261.63;5054622;28;20450;-73
2023/03/01 11:22:33;;;;;;;5.73;4.03;;;;;;;7.66;99.71;95256.81;5054379;28;20451;-73
2023/03/01 11:25:01;;;;;;;4.80;4.20;;;;;;;7.69;99.91;95262.66;5054579;28;20454;-73
2023/03/01 11:27:32;;;;;;;6.67;5.27;;;;;;;7.85;99.65;95261.66;5054913;28;20446;-73
2023/03/01 11:30:04;;;;;;;8.63;7.13;;;;;;;7.97;98.92;95272.09;5054772;28;20459;-73
2023/03/01 11:32:39;;;;;;;6.83;6.13;;;;;;;8.10;98.39;95271.25;5055300;28;20482;-74
2023/03/01 11:35:15;;;;;;;5.50;5.00;;;;;;;8.24;97.83;95268.50;5054727;28;20488;-73
2023/03/01 11:37:52;;;;;;;5.70;4.57;;;;;;;8.32;96.85;95264.41;5054648;28;20975;-73
2023/03/01 11:40:24;;;;;;;12.10;5.17;;;;;;;8.33;96.95;95263.50;5054832;28;20454;-73
2023/03/01 11:43:03;;;;;;;5.67;5.17;;;;;;;8.46;96.55;95258.25;5054785;28;20438;-73